createdAt,value
2018-03-03T00:00:53.932Z,80.74
2018-03-03T00:01:53.912Z,80.84
2018-03-03T00:02:53.898Z,80.56
2018-03-03T00:03:53.878Z,80.84
2018-03-03T00:04:53.863Z,80.84
2018-03-03T00:05:53.847Z,81.03
2018-03-03T00:06:53.833Z,80.84
2018-03-03T00:07:53.874Z,80.93
2018-03-03T00:08:53.802Z,80.74
2018-03-03T00:09:53.783Z,80.84
2018-03-03T00:10:53.762Z,80.56
2018-03-03T00:11:53.750Z,80.65
2018-03-03T00:12:53.728Z,80.65
2018-03-03T00:13:53.713Z,80.74
2018-03-03T00:14:53.694Z,80.37
2018-03-03T00:15:53.681Z,81.03
2018-03-03T00:16:53.662Z,80.74
2018-03-03T00:17:53.646Z,80.74
2018-03-03T00:18:53.629Z,80.84
2018-03-03T00:19:53.614Z,80.46
2018-03-03T00:20:53.597Z,80.65
2018-03-03T00:21:53.627Z,81.03
2018-03-03T00:22:53.563Z,80.65
2018-03-03T00:23:53.542Z,80.74
2018-03-03T00:24:53.527Z,80.84
2018-03-03T00:25:53.514Z,80.84
2018-03-03T00:26:53.507Z,80.65
2018-03-03T00:27:53.488Z,80.84
2018-03-03T00:28:53.461Z,80.46
2018-03-03T00:29:53.445Z,80.84
2018-03-03T00:30:53.433Z,80.65
2018-03-03T00:31:53.411Z,80.74
2018-03-03T00:32:53.393Z,80.74
2018-03-03T00:33:53.377Z,80.93
2018-03-03T00:34:53.362Z,80.56
2018-03-03T00:35:53.346Z,80.84
2018-03-03T00:36:53.328Z,81.50
2018-03-03T00:37:53.308Z,80.65
2018-03-03T00:38:53.297Z,80.74
2018-03-03T00:39:53.277Z,80.56
2018-03-03T00:40:53.259Z,80.56
2018-03-03T00:41:53.243Z,80.93
2018-03-03T00:42:53.225Z,80.74
2018-03-03T00:43:53.210Z,81.12
2018-03-03T00:44:53.191Z,81.03
2018-03-03T00:45:53.176Z,81.41
2018-03-03T00:46:53.158Z,81.50
2018-03-03T00:47:53.141Z,80.84
2018-03-03T00:48:53.127Z,80.93
2018-03-03T00:49:53.103Z,81.59
2018-03-03T00:50:53.090Z,80.65
2018-03-03T00:51:53.075Z,80.84
2018-03-03T00:52:53.058Z,80.37
2018-03-03T00:53:53.039Z,80.84
2018-03-03T00:54:53.026Z,80.46
2018-03-03T00:55:53.008Z,80.46
2018-03-03T00:56:52.994Z,80.74
2018-03-03T00:57:52.972Z,81.50
2018-03-03T00:58:52.957Z,81.50
2018-03-03T00:59:52.939Z,81.22
2018-03-03T01:00:52.928Z,80.56
2018-03-03T01:01:52.904Z,80.93
2018-03-03T01:02:52.888Z,80.93
2018-03-03T01:03:52.873Z,81.12
2018-03-03T01:04:52.854Z,80.46
2018-03-03T01:05:52.836Z,80.93
2018-03-03T01:06:52.821Z,81.03
2018-03-03T01:07:52.808Z,80.74
2018-03-03T01:08:52.788Z,81.50
2018-03-03T01:09:52.774Z,81.69
2018-03-03T01:10:52.753Z,81.59
2018-03-03T01:11:52.734Z,81.03
2018-03-03T01:12:52.723Z,81.03
2018-03-03T01:13:52.702Z,81.31
2018-03-03T01:14:52.682Z,81.59
2018-03-03T01:15:52.669Z,81.69
2018-03-03T01:16:52.653Z,81.03
2018-03-03T01:17:52.636Z,81.12
2018-03-03T01:18:52.618Z,81.31
2018-03-03T01:19:52.605Z,81.50
2018-03-03T01:20:52.586Z,81.31
2018-03-03T01:21:52.569Z,81.59
2018-03-03T01:22:52.553Z,81.31
2018-03-03T01:23:52.534Z,81.59
2018-03-03T01:24:52.515Z,81.12
2018-03-03T01:25:52.501Z,81.50
2018-03-03T01:26:52.484Z,81.50
2018-03-03T01:27:52.470Z,80.93
2018-03-03T01:28:52.452Z,81.56
2018-03-03T01:29:52.437Z,81.46
2018-03-03T01:30:52.417Z,81.37
2018-03-03T01:31:52.401Z,81.27
2018-03-03T01:32:52.384Z,81.46
2018-03-03T01:33:52.366Z,81.65
2018-03-03T01:34:52.350Z,81.88
2018-03-03T01:35:52.334Z,81.31
2018-03-03T01:36:52.321Z,81.41
2018-03-03T01:37:52.298Z,81.41
2018-03-03T01:38:52.287Z,81.31
2018-03-03T01:39:52.268Z,81.59
2018-03-03T01:40:52.249Z,81.31
2018-03-03T01:41:52.232Z,81.41
2018-03-03T01:42:52.215Z,81.41
2018-03-03T01:43:52.199Z,80.93
2018-03-03T01:44:52.184Z,81.41
2018-03-03T01:45:52.165Z,81.46
2018-03-03T01:46:52.147Z,81.56
2018-03-03T01:47:52.132Z,81.27
2018-03-03T01:48:52.116Z,81.46
2018-03-03T01:49:52.103Z,81.08
2018-03-03T01:50:52.083Z,81.27
2018-03-03T01:51:52.063Z,80.99
2018-03-03T01:52:52.047Z,81.56
2018-03-03T01:53:52.031Z,81.46
2018-03-03T01:54:52.018Z,81.50
2018-03-03T01:55:51.999Z,81.08
2018-03-03T01:56:51.982Z,81.27
2018-03-03T01:57:51.966Z,81.18
2018-03-03T01:58:51.950Z,81.46
2018-03-03T01:59:51.930Z,81.65
2018-03-03T02:00:51.915Z,81.46
2018-03-03T02:01:51.896Z,81.46
2018-03-03T02:02:51.880Z,81.93
2018-03-03T02:03:51.858Z,81.27
2018-03-03T02:04:51.848Z,81.74
2018-03-03T02:05:51.827Z,81.65
2018-03-03T02:06:51.813Z,81.93
2018-03-03T02:07:51.797Z,81.65
2018-03-03T02:08:51.779Z,81.74
2018-03-03T02:09:51.765Z,81.18
2018-03-03T02:10:51.745Z,81.37
2018-03-03T02:11:51.728Z,81.46
2018-03-03T02:12:51.708Z,81.93
2018-03-03T02:13:51.694Z,81.56
2018-03-03T02:14:51.676Z,81.37
2018-03-03T02:15:51.660Z,81.37
2018-03-03T02:16:51.643Z,81.46
2018-03-03T02:17:51.632Z,81.46
2018-03-03T02:18:51.609Z,81.27
2018-03-03T02:19:51.603Z,81.65
2018-03-03T02:20:51.577Z,81.27
2018-03-03T02:21:51.557Z,81.37
2018-03-03T02:22:51.539Z,81.65
2018-03-03T02:23:51.528Z,81.56
2018-03-03T02:24:51.507Z,81.46
2018-03-03T02:25:51.488Z,81.84
2018-03-03T02:26:51.473Z,82.68
2018-03-03T02:27:51.458Z,82.40
2018-03-03T02:28:51.441Z,82.40
2018-03-03T02:29:51.422Z,82.21
2018-03-03T02:30:51.408Z,82.68
2018-03-03T02:31:51.389Z,82.40
2018-03-03T02:32:51.371Z,82.31
2018-03-03T02:33:51.357Z,82.40
2018-03-03T02:34:51.338Z,82.40
2018-03-03T02:35:51.334Z,82.31
2018-03-03T02:36:51.306Z,82.50
2018-03-03T02:37:51.286Z,82.40
2018-03-03T02:38:51.269Z,82.50
2018-03-03T02:39:51.253Z,82.59
2018-03-03T02:40:51.234Z,82.50
2018-03-03T02:41:51.220Z,82.87
2018-03-03T02:42:51.199Z,82.97
2018-03-03T02:43:51.184Z,82.87
2018-03-03T02:44:51.166Z,82.97
2018-03-03T02:45:51.147Z,83.06
2018-03-03T02:46:51.134Z,83.06
2018-03-03T02:47:51.117Z,82.87
2018-03-03T02:48:51.100Z,82.87
2018-03-03T02:49:51.085Z,82.78
2018-03-03T02:50:51.064Z,82.78
2018-03-03T02:51:51.046Z,82.87
2018-03-03T02:52:51.031Z,82.97
2018-03-03T02:53:51.017Z,82.78
2018-03-03T02:54:50.996Z,83.06
2018-03-03T02:55:50.978Z,83.15
2018-03-03T02:56:50.961Z,82.87
2018-03-03T02:57:50.943Z,83.06
2018-03-03T02:58:50.927Z,82.87
2018-03-03T02:59:50.911Z,82.87
2018-03-03T03:00:50.889Z,82.87
2018-03-03T03:01:50.874Z,82.97
2018-03-03T03:02:50.859Z,83.34
2018-03-03T03:03:50.841Z,82.97
2018-03-03T03:04:50.825Z,83.06
2018-03-03T03:05:50.808Z,82.97
2018-03-03T03:06:50.788Z,82.50
2018-03-03T03:07:50.771Z,83.25
2018-03-03T03:08:50.751Z,83.34
2018-03-03T03:09:50.740Z,83.25
2018-03-03T03:10:50.717Z,83.06
2018-03-03T03:11:50.701Z,83.06
2018-03-03T03:12:50.678Z,82.97
2018-03-03T03:13:50.667Z,82.97
2018-03-03T03:14:50.647Z,83.06
2018-03-03T03:15:50.631Z,82.87
2018-03-03T03:16:50.607Z,83.06
2018-03-03T03:17:50.600Z,82.97
2018-03-03T03:18:50.582Z,82.87
2018-03-03T03:19:50.562Z,82.59
2018-03-03T03:20:50.541Z,83.06
2018-03-03T03:21:50.526Z,83.06
2018-03-03T03:22:50.509Z,83.06
2018-03-03T03:23:50.492Z,83.53
2018-03-03T03:24:50.473Z,83.25
2018-03-03T03:25:50.454Z,82.78
2018-03-03T03:26:50.439Z,83.06
2018-03-03T03:27:50.421Z,82.97
2018-03-03T03:28:50.403Z,82.50
2018-03-03T03:29:50.384Z,82.97
2018-03-03T03:30:50.368Z,82.87
2018-03-03T03:31:50.353Z,83.06
2018-03-03T03:32:50.334Z,82.97
2018-03-03T03:33:50.317Z,83.15
2018-03-03T03:34:50.297Z,82.97
2018-03-03T03:35:50.282Z,83.34
2018-03-03T03:36:50.263Z,83.25
2018-03-03T03:37:50.246Z,83.06
2018-03-03T03:38:50.229Z,82.87
2018-03-03T03:39:50.213Z,82.78
2018-03-03T03:40:50.200Z,82.78
2018-03-03T03:41:50.176Z,82.78
2018-03-03T03:42:50.157Z,82.97
2018-03-03T03:43:50.140Z,82.97
2018-03-03T03:44:50.124Z,83.25
2018-03-03T03:45:50.108Z,83.15
2018-03-03T03:46:50.083Z,82.87
2018-03-03T03:47:50.070Z,82.97
2018-03-03T03:48:50.056Z,82.03
2018-03-03T03:49:50.035Z,83.25
2018-03-03T03:50:50.015Z,83.06
2018-03-03T03:51:50.000Z,83.25
2018-03-03T03:52:49.981Z,82.97
2018-03-03T03:53:49.965Z,82.97
2018-03-03T03:54:49.954Z,83.06
2018-03-03T03:55:49.931Z,82.87
2018-03-03T03:56:49.912Z,83.15
2018-03-03T03:57:49.894Z,82.78
2018-03-03T03:58:49.875Z,83.25
2018-03-03T03:59:49.857Z,82.87
2018-03-03T04:00:49.839Z,83.06
2018-03-03T04:01:49.826Z,83.06
2018-03-03T04:02:49.804Z,82.87
2018-03-03T04:03:49.789Z,82.78
2018-03-03T04:04:49.780Z,83.25
2018-03-03T04:05:49.753Z,83.25
2018-03-03T04:06:49.735Z,83.15
2018-03-03T04:07:49.712Z,83.06
2018-03-03T04:08:49.703Z,82.78
2018-03-03T04:09:49.682Z,82.97
2018-03-03T04:10:49.667Z,82.78
2018-03-03T04:11:49.648Z,82.87
2018-03-03T04:12:49.639Z,83.06
2018-03-03T04:13:49.615Z,83.06
2018-03-03T04:14:49.597Z,82.97
2018-03-03T04:15:49.577Z,83.44
2018-03-03T04:16:49.559Z,82.97
2018-03-03T04:17:49.542Z,83.15
2018-03-03T04:18:49.526Z,82.97
2018-03-03T04:19:49.508Z,83.25
2018-03-03T04:20:49.487Z,82.97
2018-03-03T04:21:49.467Z,83.15
2018-03-03T04:22:49.453Z,82.97
2018-03-03T04:23:49.436Z,83.44
2018-03-03T04:24:49.418Z,83.25
2018-03-03T04:25:49.400Z,83.06
2018-03-03T04:26:49.384Z,83.06
2018-03-03T04:27:49.367Z,83.15
2018-03-03T04:28:49.351Z,82.97
2018-03-03T04:29:49.332Z,83.06
2018-03-03T04:30:49.313Z,83.34
2018-03-03T04:31:49.295Z,83.53
2018-03-03T04:32:49.281Z,83.53
2018-03-03T04:33:49.259Z,83.34
2018-03-03T04:34:49.244Z,83.34
2018-03-03T04:35:49.226Z,83.44
2018-03-03T04:36:49.207Z,83.34
2018-03-03T04:37:49.188Z,83.15
2018-03-03T04:38:49.173Z,82.97
2018-03-03T04:39:49.163Z,83.44
2018-03-03T04:40:49.136Z,83.34
2018-03-03T04:41:49.120Z,83.25
2018-03-03T04:42:49.104Z,83.34
2018-03-03T04:43:49.086Z,83.25
2018-03-03T04:44:49.067Z,83.34
2018-03-03T04:45:49.048Z,83.44
2018-03-03T04:46:49.029Z,83.25
2018-03-03T04:47:49.015Z,83.72
2018-03-03T04:48:48.996Z,83.91
2018-03-03T04:49:48.976Z,83.91
2018-03-03T04:50:48.961Z,83.25
2018-03-03T04:51:48.943Z,83.34
2018-03-03T04:52:48.925Z,83.44
2018-03-03T04:53:48.909Z,83.44
2018-03-03T04:54:48.891Z,83.06
2018-03-03T04:55:48.876Z,83.34
2018-03-03T04:56:48.860Z,83.15
2018-03-03T04:57:48.839Z,83.34
2018-03-03T04:58:48.820Z,83.15
2018-03-03T04:59:48.813Z,83.53
2018-03-03T05:00:48.788Z,83.34
2018-03-03T05:01:48.768Z,82.87
2018-03-03T05:02:48.748Z,83.44
2018-03-03T05:03:48.732Z,83.53
2018-03-03T05:04:48.713Z,83.34
2018-03-03T05:05:48.696Z,83.34
2018-03-03T05:06:48.678Z,83.25
2018-03-03T05:07:48.660Z,83.15
2018-03-03T05:08:48.645Z,83.15
2018-03-03T05:09:48.630Z,83.25
2018-03-03T05:10:48.609Z,83.62
2018-03-03T05:11:48.594Z,83.06
2018-03-03T05:12:48.576Z,83.91
2018-03-03T05:13:48.556Z,83.91
2018-03-03T05:14:48.537Z,83.91
2018-03-03T05:15:48.518Z,83.81
2018-03-03T05:16:48.505Z,83.34
2018-03-03T05:17:48.486Z,83.25
2018-03-03T05:18:48.467Z,83.34
2018-03-03T05:19:48.447Z,83.44
2018-03-03T05:20:48.434Z,83.72
2018-03-03T05:21:48.417Z,83.91
2018-03-03T05:22:48.396Z,84.00
2018-03-03T05:23:48.379Z,83.91
2018-03-03T05:24:48.361Z,83.72
2018-03-03T05:25:48.346Z,83.72
2018-03-03T05:26:48.329Z,84.00
2018-03-03T05:27:48.309Z,83.91
2018-03-03T05:28:48.290Z,83.15
2018-03-03T05:29:48.274Z,83.62
2018-03-03T05:30:48.255Z,83.25
2018-03-03T05:31:48.241Z,83.62
2018-03-03T05:32:48.222Z,83.72
2018-03-03T05:33:48.197Z,84.00
2018-03-03T05:34:48.202Z,83.91
2018-03-03T05:35:48.181Z,83.81
2018-03-03T05:36:48.261Z,83.81
2018-03-03T05:37:48.138Z,83.91
2018-03-03T05:38:48.115Z,83.72
2018-03-03T05:39:48.098Z,83.72
2018-03-03T05:40:48.076Z,83.72
2018-03-03T05:41:48.064Z,83.81
2018-03-03T05:42:48.045Z,83.81
2018-03-03T05:43:48.025Z,84.00
2018-03-03T05:44:48.051Z,83.91
2018-03-03T05:45:47.990Z,83.72
2018-03-03T05:46:47.976Z,84.09
2018-03-03T05:47:47.955Z,83.62
2018-03-03T05:48:47.936Z,84.00
2018-03-03T05:49:47.920Z,84.00
2018-03-03T05:50:47.902Z,84.09
2018-03-03T05:51:47.886Z,83.72
2018-03-03T05:52:47.867Z,83.91
2018-03-03T05:53:47.850Z,84.38
2018-03-03T05:54:47.831Z,84.09
2018-03-03T05:55:47.813Z,84.47
2018-03-03T05:56:47.797Z,83.91
2018-03-03T05:57:47.782Z,83.91
2018-03-03T05:58:47.762Z,83.81
2018-03-03T05:59:47.745Z,84.00
2018-03-03T06:00:47.722Z,83.81
2018-03-03T06:01:47.704Z,83.62
2018-03-03T06:02:47.691Z,84.09
2018-03-03T06:03:47.673Z,84.47
2018-03-03T06:04:47.656Z,84.28
2018-03-03T06:05:47.636Z,84.56
2018-03-03T06:06:47.620Z,83.91
2018-03-03T06:07:47.658Z,83.91
2018-03-03T06:08:47.583Z,84.00
2018-03-03T06:09:47.566Z,83.91
2018-03-03T06:10:47.548Z,83.91
2018-03-03T06:11:47.573Z,84.00
2018-03-03T06:12:47.516Z,84.09
2018-03-03T06:13:47.497Z,83.91
2018-03-03T06:14:47.476Z,83.44
2018-03-03T06:15:47.460Z,83.91
2018-03-03T06:16:47.443Z,84.47
2018-03-03T06:17:47.424Z,84.47
2018-03-03T06:18:47.406Z,83.62
2018-03-03T06:19:47.388Z,83.91
2018-03-03T06:20:47.373Z,83.81
2018-03-03T06:21:47.352Z,84.00
2018-03-03T06:22:47.334Z,84.09
2018-03-03T06:23:47.317Z,83.81
2018-03-03T06:24:47.302Z,83.91
2018-03-03T06:25:47.282Z,84.00
2018-03-03T06:26:47.264Z,84.47
2018-03-03T06:27:47.249Z,84.38
2018-03-03T06:28:47.228Z,84.56
2018-03-03T06:29:47.210Z,84.09
2018-03-03T06:30:47.192Z,83.91
2018-03-03T06:31:47.177Z,84.00
2018-03-03T06:32:47.156Z,84.09
2018-03-03T06:33:47.141Z,84.38
2018-03-03T06:34:47.125Z,84.28
2018-03-03T06:35:47.105Z,84.56
2018-03-03T06:36:47.087Z,83.81
2018-03-03T06:37:47.067Z,84.38
2018-03-03T06:38:47.052Z,84.56
2018-03-03T06:39:47.032Z,84.00
2018-03-03T06:40:47.013Z,84.00
2018-03-03T06:41:46.998Z,84.28
2018-03-03T06:42:46.980Z,84.00
2018-03-03T06:43:46.963Z,84.38
2018-03-03T06:44:46.945Z,84.00
2018-03-03T06:45:46.931Z,83.81
2018-03-03T06:46:46.908Z,84.00
2018-03-03T06:47:46.893Z,83.91
2018-03-03T06:48:46.875Z,83.72
2018-03-03T06:49:46.857Z,83.81
2018-03-03T06:50:46.839Z,83.91
2018-03-03T06:51:46.821Z,83.91
2018-03-03T06:52:46.803Z,84.38
2018-03-03T06:53:46.839Z,84.47
2018-03-03T06:54:46.772Z,84.00
2018-03-03T06:55:46.752Z,83.91
2018-03-03T06:56:46.738Z,84.56
2018-03-03T06:57:46.716Z,84.56
2018-03-03T06:58:46.701Z,83.91
2018-03-03T06:59:46.682Z,83.91
2018-03-03T07:00:46.663Z,84.00
2018-03-03T07:01:46.646Z,83.81
2018-03-03T07:02:46.630Z,84.09
2018-03-03T07:03:46.610Z,84.00
2018-03-03T07:04:46.593Z,84.00
2018-03-03T07:05:46.577Z,83.72
2018-03-03T07:06:46.560Z,83.72
2018-03-03T07:07:46.551Z,84.00
2018-03-03T07:08:46.523Z,84.00
2018-03-03T07:09:46.506Z,83.91
2018-03-03T07:10:46.490Z,83.72
2018-03-03T07:11:46.473Z,83.53
2018-03-03T07:12:46.454Z,83.72
2018-03-03T07:13:46.435Z,83.91
2018-03-03T07:14:46.420Z,83.44
2018-03-03T07:15:46.402Z,83.72
2018-03-03T07:16:46.384Z,83.81
2018-03-03T07:17:46.369Z,83.91
2018-03-03T07:18:46.350Z,83.25
2018-03-03T07:19:46.332Z,83.62
2018-03-03T07:20:46.314Z,83.44
2018-03-03T07:21:46.300Z,83.91
2018-03-03T07:22:46.279Z,83.34
2018-03-03T07:23:46.267Z,83.81
2018-03-03T07:24:46.248Z,83.72
2018-03-03T07:25:46.225Z,83.15
2018-03-03T07:26:46.211Z,83.25
2018-03-03T07:27:46.194Z,83.15
2018-03-03T07:28:46.183Z,83.91
2018-03-03T07:29:46.159Z,83.34
2018-03-03T07:30:46.150Z,83.25
2018-03-03T07:31:46.125Z,83.53
2018-03-03T07:32:46.108Z,83.25
2018-03-03T07:33:46.089Z,83.25
2018-03-03T07:34:46.072Z,84.09
2018-03-03T07:35:46.058Z,83.62
2018-03-03T07:36:46.048Z,83.48
2018-03-03T07:37:46.022Z,84.05
2018-03-03T07:38:46.004Z,83.76
2018-03-03T07:39:45.987Z,83.20
2018-03-03T07:40:45.969Z,83.39
2018-03-03T07:41:45.949Z,83.01
2018-03-03T07:42:45.935Z,83.01
2018-03-03T07:43:45.917Z,83.20
2018-03-03T07:44:45.915Z,82.92
2018-03-03T07:45:45.885Z,83.29
2018-03-03T07:46:45.866Z,82.44
2018-03-03T07:47:45.852Z,83.01
2018-03-03T07:48:45.832Z,82.73
2018-03-03T07:49:45.814Z,82.82
2018-03-03T07:50:45.797Z,83.29
2018-03-03T07:51:45.782Z,82.92
2018-03-03T07:52:45.763Z,83.10
2018-03-03T07:53:45.748Z,83.01
2018-03-03T07:54:45.729Z,82.63
2018-03-03T07:55:45.712Z,82.54
2018-03-03T07:56:45.699Z,83.20
2018-03-03T07:57:45.680Z,82.63
2018-03-03T07:58:45.667Z,81.88
2018-03-03T07:59:45.649Z,82.35
2018-03-03T08:00:45.627Z,82.16
2018-03-03T08:01:45.610Z,82.82
2018-03-03T08:02:45.590Z,82.25
2018-03-03T08:03:45.576Z,82.44
2018-03-03T08:04:45.560Z,81.78
2018-03-03T08:05:45.542Z,82.44
2018-03-03T08:06:45.527Z,81.78
2018-03-03T08:07:45.511Z,81.50
2018-03-03T08:08:45.495Z,81.59
2018-03-03T08:09:45.568Z,81.41
2018-03-03T08:10:45.458Z,82.16
2018-03-03T08:11:45.443Z,81.78
2018-03-03T08:12:45.425Z,80.84
2018-03-03T08:13:45.405Z,80.84
2018-03-03T08:14:45.392Z,81.31
2018-03-03T08:15:45.377Z,80.84
2018-03-03T08:16:45.361Z,80.56
2018-03-03T08:17:45.344Z,80.65
2018-03-03T08:18:45.370Z,80.56
2018-03-03T08:19:45.312Z,80.37
2018-03-03T08:20:45.291Z,80.08
2018-03-03T08:21:45.277Z,79.61
2018-03-03T08:22:45.260Z,80.37
2018-03-03T08:23:45.244Z,79.80
2018-03-03T08:24:45.227Z,80.08
2018-03-03T08:25:45.210Z,79.90
2018-03-03T08:26:45.193Z,79.80
2018-03-03T08:27:45.178Z,79.80
2018-03-03T08:28:45.161Z,79.80
2018-03-03T08:29:45.143Z,79.43
2018-03-03T08:30:45.134Z,79.61
2018-03-03T08:31:45.113Z,79.24
2018-03-03T08:32:45.096Z,79.14
2018-03-03T08:33:45.078Z,79.33
2018-03-03T08:34:45.062Z,79.00
2018-03-03T08:35:45.049Z,78.90
2018-03-03T08:36:45.027Z,79.00
2018-03-03T08:37:45.019Z,79.47
2018-03-03T08:38:44.994Z,79.00
2018-03-03T08:39:44.982Z,78.15
2018-03-03T08:40:44.965Z,77.77
2018-03-03T08:41:44.946Z,77.67
2018-03-03T08:42:44.931Z,77.67
2018-03-03T08:43:44.915Z,77.01
2018-03-03T08:44:44.899Z,76.64
2018-03-03T08:45:44.882Z,76.82
2018-03-03T08:46:44.866Z,76.45
2018-03-03T08:47:44.849Z,76.82
2018-03-03T08:48:44.833Z,76.45
2018-03-03T08:49:44.818Z,76.07
2018-03-03T08:50:44.838Z,77.11
2018-03-03T08:51:44.790Z,77.01
2018-03-03T08:52:44.769Z,76.82
2018-03-03T08:53:44.755Z,75.98
2018-03-03T08:54:44.737Z,76.17
2018-03-03T08:55:44.723Z,75.32
2018-03-03T08:56:44.706Z,75.32
2018-03-03T08:57:44.691Z,74.76
2018-03-03T08:58:44.678Z,75.04
2018-03-03T08:59:44.658Z,74.85
2018-03-03T09:00:44.641Z,74.57
2018-03-03T09:01:44.624Z,74.47
2018-03-03T09:02:44.612Z,74.38
2018-03-03T09:03:44.594Z,74.57
2018-03-03T09:04:44.576Z,74.76
2018-03-03T09:05:44.560Z,73.72
2018-03-03T09:06:44.544Z,73.43
2018-03-03T09:07:44.531Z,71.64
2018-03-03T09:08:44.516Z,71.83
2018-03-03T09:09:44.500Z,71.92
2018-03-03T09:10:44.481Z,71.08
2018-03-03T09:11:44.465Z,71.17
2018-03-03T09:12:44.451Z,70.98
2018-03-03T09:13:44.466Z,70.51
2018-03-03T09:14:44.420Z,70.51
2018-03-03T09:15:44.402Z,70.14
2018-03-03T09:16:44.383Z,68.91
2018-03-03T09:17:44.374Z,69.38
2018-03-03T09:18:44.353Z,69.95
2018-03-03T09:19:44.337Z,68.82
2018-03-03T09:20:44.320Z,67.59
2018-03-03T09:21:44.307Z,66.55
2018-03-03T09:22:44.313Z,67.12
2018-03-03T09:23:44.274Z,65.99
2018-03-03T09:24:44.256Z,65.61
2018-03-03T09:25:44.242Z,65.14
2018-03-03T09:26:44.231Z,65.99
2018-03-03T09:27:44.211Z,64.67
2018-03-03T09:28:44.196Z,64.39
2018-03-03T09:29:44.181Z,64.01
2018-03-03T09:30:44.163Z,63.54
2018-03-03T09:31:44.150Z,63.10
2018-03-03T09:32:44.135Z,63.25
2018-03-03T09:33:44.117Z,62.50
2018-03-03T09:34:44.104Z,63.54
2018-03-03T09:35:44.090Z,63.06
2018-03-03T09:36:44.074Z,62.88
2018-03-03T09:37:44.053Z,62.53
2018-03-03T09:38:44.039Z,62.15
2018-03-03T09:39:44.026Z,61.96
2018-03-03T09:40:44.007Z,63.06
2018-03-03T09:41:43.991Z,63.25
2018-03-03T09:42:43.976Z,64.14
2018-03-03T09:43:43.960Z,63.29
2018-03-03T09:44:43.946Z,62.91
2018-03-03T09:45:43.935Z,61.68
2018-03-03T09:46:43.914Z,62.15
2018-03-03T09:47:43.898Z,61.87
2018-03-03T09:48:43.882Z,61.30
2018-03-03T09:49:43.866Z,61.30
2018-03-03T09:50:43.852Z,61.87
2018-03-03T09:51:43.836Z,61.87
2018-03-03T09:52:43.819Z,61.11
2018-03-03T09:53:43.804Z,61.58
2018-03-03T09:54:43.790Z,61.21
2018-03-03T09:55:43.777Z,60.64
2018-03-03T09:56:43.761Z,61.58
2018-03-03T09:57:43.744Z,60.64
2018-03-03T09:58:43.729Z,60.46
2018-03-03T09:59:43.714Z,60.17
2018-03-03T10:00:43.697Z,60.64
2018-03-03T10:01:43.764Z,60.55
2018-03-03T10:02:43.668Z,60.55
2018-03-03T10:03:43.652Z,59.99
2018-03-03T10:04:43.663Z,60.55
2018-03-03T10:05:43.621Z,60.74
2018-03-03T10:06:43.604Z,62.15
2018-03-03T10:07:43.593Z,62.06
2018-03-03T10:08:43.579Z,61.11
2018-03-03T10:09:43.556Z,60.74
2018-03-03T10:10:43.542Z,60.74
2018-03-03T10:11:43.533Z,59.70
2018-03-03T10:12:43.512Z,59.33
2018-03-03T10:13:43.498Z,59.70
2018-03-03T10:14:43.484Z,59.89
2018-03-03T10:15:43.470Z,59.70
2018-03-03T10:16:43.452Z,59.80
2018-03-03T10:17:43.438Z,59.70
2018-03-03T10:18:43.423Z,60.36
2018-03-03T10:19:43.408Z,60.55
2018-03-03T10:20:43.403Z,59.42
2018-03-03T10:21:43.378Z,59.33
2018-03-03T10:22:43.368Z,59.23
2018-03-03T10:23:43.348Z,58.95
2018-03-03T10:24:43.333Z,59.23
2018-03-03T10:25:43.317Z,59.14
2018-03-03T10:26:43.302Z,59.89
2018-03-03T10:27:43.287Z,59.51
2018-03-03T10:28:43.272Z,59.51
2018-03-03T10:29:43.258Z,59.23
2018-03-03T10:30:43.241Z,59.70
2018-03-03T10:31:43.235Z,59.70
2018-03-03T10:32:43.216Z,59.35
2018-03-03T10:33:43.198Z,59.04
2018-03-03T10:34:43.183Z,59.89
2018-03-03T10:35:43.169Z,59.99
2018-03-03T10:36:43.152Z,59.89
2018-03-03T10:37:43.138Z,60.27
2018-03-03T10:38:43.128Z,59.51
2018-03-03T10:39:43.108Z,59.61
2018-03-03T10:40:43.094Z,59.61
2018-03-03T10:41:43.082Z,60.08
2018-03-03T10:42:43.063Z,58.95
2018-03-03T10:43:43.046Z,59.04
2018-03-03T10:44:43.035Z,59.99
2018-03-03T10:45:43.016Z,59.70
2018-03-03T10:46:43.004Z,59.64
2018-03-03T10:47:42.989Z,60.17
2018-03-03T10:48:42.974Z,59.61
2018-03-03T10:49:43.010Z,59.73
2018-03-03T10:50:43.024Z,59.26
2018-03-03T10:51:42.930Z,58.95
2018-03-03T10:52:42.914Z,59.61
2018-03-03T10:53:42.900Z,59.92
2018-03-03T10:54:42.883Z,59.17
2018-03-03T10:55:42.872Z,59.04
2018-03-03T10:56:42.854Z,58.98
2018-03-03T10:57:42.839Z,59.17
2018-03-03T10:58:42.841Z,59.73
2018-03-03T10:59:42.818Z,58.98
2018-03-03T11:00:42.794Z,58.98
2018-03-03T11:01:42.783Z,58.98
2018-03-03T11:02:42.766Z,59.26
2018-03-03T11:03:42.752Z,58.60
2018-03-03T11:04:42.739Z,58.12
2018-03-03T11:05:42.722Z,58.22
2018-03-03T11:06:42.707Z,58.22
2018-03-03T11:07:42.693Z,57.37
2018-03-03T11:08:42.677Z,57.37
2018-03-03T11:09:42.692Z,57.56
2018-03-03T11:10:42.646Z,57.18
2018-03-03T11:11:42.648Z,57.28
2018-03-03T11:12:42.619Z,56.99
2018-03-03T11:13:42.604Z,57.09
2018-03-03T11:14:42.590Z,57.09
2018-03-03T11:15:42.575Z,56.52
2018-03-03T11:16:42.558Z,56.43
2018-03-03T11:17:42.545Z,55.96
2018-03-03T11:18:42.530Z,55.86
2018-03-03T11:19:42.518Z,55.77
2018-03-03T11:20:42.509Z,56.15
2018-03-03T11:21:42.485Z,56.05
2018-03-03T11:22:42.473Z,55.86
2018-03-03T11:23:42.459Z,56.24
2018-03-03T11:24:42.449Z,55.30
2018-03-03T11:25:42.429Z,55.01
2018-03-03T11:26:42.412Z,54.82
2018-03-03T11:27:42.404Z,55.20
2018-03-03T11:28:42.387Z,55.49
2018-03-03T11:29:42.381Z,55.58
2018-03-03T11:30:42.363Z,55.77
2018-03-03T11:31:42.343Z,55.86
2018-03-03T11:32:42.330Z,55.77
2018-03-03T11:33:42.316Z,55.96
2018-03-03T11:34:42.300Z,55.39
2018-03-03T11:35:42.288Z,55.77
2018-03-03T11:36:42.271Z,55.20
2018-03-03T11:37:42.257Z,55.01
2018-03-03T11:38:42.251Z,55.39
2018-03-03T11:39:42.229Z,55.13
2018-03-03T11:40:42.212Z,55.23
2018-03-03T11:41:42.201Z,54.57
2018-03-03T11:42:42.188Z,54.47
2018-03-03T11:43:42.176Z,54.07
2018-03-03T11:44:42.158Z,54.35
2018-03-03T11:45:42.144Z,54.16
2018-03-03T11:46:42.130Z,54.54
2018-03-03T11:47:42.116Z,54.82
2018-03-03T11:48:42.100Z,54.57
2018-03-03T11:49:42.089Z,54.57
2018-03-03T11:50:42.075Z,54.38
2018-03-03T11:51:42.060Z,54.57
2018-03-03T11:52:42.044Z,54.63
2018-03-03T11:53:42.030Z,54.54
2018-03-03T11:54:42.016Z,55.23
2018-03-03T11:55:42.002Z,54.57
2018-03-03T11:56:41.994Z,54.28
2018-03-03T11:57:41.976Z,54.47
2018-03-03T11:58:41.960Z,53.63
2018-03-03T11:59:41.948Z,53.15
2018-03-03T12:00:41.929Z,52.59
2018-03-03T12:01:41.920Z,52.02
2018-03-03T12:02:41.907Z,51.92
2018-03-03T12:03:41.892Z,52.30
2018-03-03T12:04:41.876Z,52.30
2018-03-03T12:05:41.866Z,53.15
2018-03-03T12:06:41.852Z,53.06
2018-03-03T12:07:41.837Z,53.44
2018-03-03T12:08:41.821Z,52.96
2018-03-03T12:09:41.808Z,53.34
2018-03-03T12:10:41.797Z,53.53
2018-03-03T12:11:41.783Z,53.53
2018-03-03T12:12:41.770Z,53.34
2018-03-03T12:13:41.755Z,53.15
2018-03-03T12:14:41.743Z,53.44
2018-03-03T12:15:41.729Z,53.15
2018-03-03T12:16:41.713Z,53.25
2018-03-03T12:17:41.708Z,53.25
2018-03-03T12:18:41.687Z,53.44
2018-03-03T12:19:41.674Z,53.34
2018-03-03T12:20:41.660Z,53.15
2018-03-03T12:21:41.646Z,53.25
2018-03-03T12:22:41.638Z,52.87
2018-03-03T12:23:41.620Z,52.59
2018-03-03T12:24:41.607Z,52.11
2018-03-03T12:25:41.592Z,51.83
2018-03-03T12:26:41.576Z,51.83
2018-03-03T12:27:41.567Z,51.54
2018-03-03T12:28:41.549Z,52.11
2018-03-03T12:29:41.537Z,52.11
2018-03-03T12:30:41.525Z,52.02
2018-03-03T12:31:41.513Z,51.54
2018-03-03T12:32:41.497Z,51.26
2018-03-03T12:33:41.485Z,51.54
2018-03-03T12:34:41.469Z,51.36
2018-03-03T12:35:41.459Z,51.64
2018-03-03T12:36:41.441Z,52.40
2018-03-03T12:37:41.430Z,52.49
2018-03-03T12:38:41.415Z,52.59
2018-03-03T12:39:41.400Z,52.49
2018-03-03T12:40:41.385Z,52.11
2018-03-03T12:41:41.375Z,51.73
2018-03-03T12:42:41.362Z,51.45
2018-03-03T12:43:41.350Z,51.83
2018-03-03T12:44:41.335Z,52.02
2018-03-03T12:45:41.321Z,52.30
2018-03-03T12:46:41.307Z,53.44
2018-03-03T12:47:41.292Z,53.25
2018-03-03T12:48:41.280Z,53.15
2018-03-03T12:49:41.266Z,53.25
2018-03-03T12:50:41.255Z,53.34
2018-03-03T12:51:41.278Z,53.25
2018-03-03T12:52:41.226Z,53.15